createdAt,value
2023-01-03T00:01:38.075Z,25.90
2023-01-03T00:04:47.422Z,30.65
2023-01-03T00:07:53.107Z,27.10
2023-01-03T00:10:58.763Z,32.42
2023-01-03T00:14:00.577Z,27.63
2023-01-03T00:17:06.067Z,24.13
2023-01-03T00:20:11.909Z,36.58
2023-01-03T00:23:15.670Z,31.83
2023-01-03T00:26:21.387Z,31.02
2023-01-03T00:29:25.173Z,30.55
2023-01-03T00:32:28.972Z,34.78
2023-01-03T00:35:32.686Z,29.88
2023-01-03T00:38:36.981Z,41.60
2023-01-03T00:41:43.742Z,33.60
2023-01-03T00:44:48.790Z,33.25
2023-01-03T00:47:52.557Z,29.25
2023-01-03T00:50:56.515Z,33.90
2023-01-03T00:57:06.337Z,35.58
2023-01-03T01:00:11.287Z,31.60
2023-01-03T01:03:17.272Z,33.63
2023-01-03T01:06:24.240Z,35.22
2023-01-03T01:09:29.835Z,33.30
2023-01-03T01:12:35.488Z,29.85
2023-01-03T01:15:39.463Z,30.25
2023-01-03T01:18:44.750Z,29.85
2023-01-03T01:21:51.182Z,36.70
2023-01-03T01:24:54.947Z,31.02
2023-01-03T01:28:00.614Z,25.50
2023-01-03T01:31:06.118Z,37.38
2023-01-03T01:34:10.584Z,34.95
2023-01-03T01:37:14.288Z,32.75
2023-01-03T01:40:19.838Z,33.05
2023-01-03T01:43:39.553Z,34.08
2023-01-03T01:46:44.245Z,36.13
2023-01-03T01:49:51.706Z,29.00
2023-01-03T01:53:03.894Z,33.35
2023-01-03T01:56:12.569Z,32.22
2023-01-03T01:59:18.600Z,37.95
2023-01-03T02:02:24.990Z,31.55
2023-01-03T02:05:31.098Z,31.20
2023-01-03T02:08:34.979Z,28.63
2023-01-03T02:15:02.198Z,32.25
2023-01-03T02:18:25.931Z,36.22
2023-01-03T02:22:12.298Z,35.13
2023-01-03T02:25:40.401Z,36.67
2023-01-03T02:29:04.193Z,33.80
2023-01-03T02:32:16.717Z,29.15
2023-01-03T02:35:26.510Z,34.40
2023-01-03T02:38:40.851Z,26.33
2023-01-03T02:41:48.351Z,29.77
2023-01-03T02:44:59.481Z,34.55
2023-01-03T02:48:11.647Z,33.58
2023-01-03T02:51:19.654Z,31.75
2023-01-03T02:54:29.066Z,30.92
2023-01-03T02:57:38.865Z,32.92
2023-01-03T03:00:48.073Z,37.92
2023-01-03T03:03:55.451Z,32.05
2023-01-03T03:07:04.937Z,26.88
2023-01-03T03:10:24.081Z,30.08
2023-01-03T03:13:36.043Z,33.72
2023-01-03T03:16:50.536Z,33.15
2023-01-03T03:20:11.138Z,28.80
2023-01-03T03:23:33.456Z,26.20
2023-01-03T03:26:40.685Z,21.83
2023-01-03T03:29:44.066Z,25.70
2023-01-03T03:32:51.380Z,27.33
2023-01-03T03:36:01.860Z,23.67
2023-01-03T03:39:27.679Z,24.23
2023-01-03T03:42:55.740Z,26.52
2023-01-03T03:46:05.517Z,21.30
2023-01-03T03:49:27.343Z,23.77
2023-01-03T03:52:35.160Z,25.90
2023-01-03T03:55:42.059Z,23.38
2023-01-03T03:58:50.721Z,25.25
2023-01-03T04:01:57.689Z,22.92
2023-01-03T04:05:07.338Z,23.33
2023-01-03T04:08:13.195Z,22.10
2023-01-03T04:11:19.476Z,19.85
2023-01-03T04:14:23.277Z,26.75
2023-01-03T04:17:27.047Z,21.58
2023-01-03T04:23:36.261Z,27.92
2023-01-03T04:26:40.081Z,30.70
2023-01-03T04:32:47.420Z,34.97
2023-01-03T04:35:51.199Z,36.22
2023-01-03T04:42:21.406Z,33.45
2023-01-03T04:45:23.266Z,28.35
2023-01-03T04:48:27.061Z,30.67
2023-01-03T04:51:30.743Z,35.75
2023-01-03T04:54:36.459Z,31.40
2023-01-03T04:57:41.677Z,34.45
2023-01-03T05:00:45.461Z,41.83
2023-01-03T05:03:49.425Z,33.33
2023-01-03T05:13:02.942Z,35.90
2023-01-03T05:16:08.256Z,36.83
2023-01-03T05:19:12.687Z,37.40
2023-01-03T05:22:29.523Z,41.00
2023-01-03T05:25:48.377Z,53.15
2023-01-03T05:28:55.907Z,51.75
2023-01-03T05:31:59.718Z,41.85
2023-01-03T05:38:07.066Z,42.00
2023-01-03T05:41:35.052Z,44.33
2023-01-03T05:44:38.759Z,52.00
2023-01-03T05:47:42.432Z,56.97
2023-01-03T05:50:46.293Z,44.22
2023-01-03T05:56:55.472Z,45.65
2023-01-03T05:59:59.155Z,50.38
2023-01-03T06:03:03.081Z,48.13
2023-01-03T06:09:13.116Z,47.40
2023-01-03T06:12:18.773Z,52.97
2023-01-03T06:15:22.642Z,51.55
2023-01-03T06:21:28.564Z,47.40
2023-01-03T06:24:32.328Z,44.95
2023-01-03T06:27:38.048Z,42.42
2023-01-03T06:30:41.773Z,46.10
2023-01-03T06:33:45.620Z,39.75
2023-01-03T06:39:52.808Z,48.60
2023-01-03T06:42:58.783Z,46.47
2023-01-03T06:46:16.528Z,47.90
2023-01-03T06:49:33.705Z,46.38
2023-01-03T06:52:50.561Z,44.83
2023-01-03T06:55:57.101Z,45.75
2023-01-03T06:59:03.770Z,48.35
2023-01-03T07:02:07.677Z,47.40
2023-01-03T07:08:14.921Z,49.13
2023-01-03T07:11:18.599Z,45.15
2023-01-03T07:14:24.300Z,50.53
2023-01-03T07:17:27.963Z,59.00
2023-01-03T07:20:31.680Z,53.40
2023-01-03T07:23:35.717Z,64.00
2023-01-03T07:26:39.687Z,58.22
2023-01-03T07:29:45.295Z,67.68
2023-01-03T07:32:49.030Z,57.03
2023-01-03T07:35:52.719Z,63.72
2023-01-03T07:42:13.903Z,54.60
2023-01-03T07:45:20.617Z,55.67
2023-01-03T07:48:24.411Z,62.08
2023-01-03T07:51:28.129Z,58.80
2023-01-03T07:54:31.843Z,69.45
2023-01-03T07:57:35.884Z,67.68
2023-01-03T08:03:45.851Z,62.30
2023-01-03T08:06:49.539Z,59.08
2023-01-03T08:10:06.367Z,52.78
2023-01-03T08:13:20.205Z,55.72
2023-01-03T08:16:25.975Z,56.50
2023-01-03T08:19:29.815Z,58.72
2023-01-03T08:22:33.594Z,60.80
2023-01-03T08:25:37.440Z,51.60
2023-01-03T08:31:51.440Z,57.75
2023-01-03T08:34:55.371Z,59.20
2023-01-03T08:44:11.186Z,54.60
2023-01-03T08:47:17.539Z,57.20
2023-01-03T08:50:22.252Z,51.78
2023-01-03T08:53:28.235Z,49.33
2023-01-03T08:56:31.942Z,47.35
2023-01-03T08:59:35.637Z,56.50
2023-01-03T09:02:41.584Z,52.40
2023-01-03T09:05:45.399Z,57.83
2023-01-03T09:08:49.144Z,55.08
2023-01-03T09:11:52.900Z,50.17
2023-01-03T09:14:56.650Z,42.88
2023-01-03T09:18:02.257Z,48.03
2023-01-03T09:21:06.649Z,48.40
2023-01-03T09:24:11.083Z,45.22
2023-01-03T09:27:14.918Z,42.35
2023-01-03T09:30:20.306Z,46.70
2023-01-03T09:33:25.954Z,49.22
2023-01-03T09:36:29.667Z,40.20
2023-01-03T09:39:33.427Z,44.85
2023-01-03T09:42:51.538Z,41.72
2023-01-03T09:45:58.031Z,39.65
2023-01-03T09:49:06.275Z,35.58
2023-01-03T09:52:31.970Z,39.42
2023-01-03T09:55:59.489Z,42.20
2023-01-03T09:59:25.231Z,37.22
2023-01-03T10:03:00.636Z,32.00
2023-01-03T10:06:15.756Z,31.48
2023-01-03T10:09:33.838Z,28.55
2023-01-03T10:12:45.134Z,30.10
2023-01-03T10:15:55.714Z,24.45
2023-01-03T10:19:17.988Z,26.70
2023-01-03T10:22:28.130Z,24.58
2023-01-03T10:25:32.012Z,22.00
2023-01-03T10:31:55.222Z,21.55
2023-01-03T10:35:19.364Z,20.83
2023-01-03T10:38:25.485Z,19.85
2023-01-03T10:41:34.871Z,19.90
2023-01-03T10:44:38.694Z,19.15
2023-01-03T10:47:42.925Z,28.75
2023-01-03T10:50:46.764Z,16.95
2023-01-03T10:56:57.874Z,12.93
2023-01-03T11:03:15.589Z,20.27
2023-01-03T11:06:19.504Z,21.13
2023-01-03T11:09:25.204Z,17.65
2023-01-03T11:12:35.351Z,18.27
2023-01-03T11:15:39.771Z,16.30
2023-01-03T11:18:44.972Z,23.02
2023-01-03T11:21:54.813Z,18.33
2023-01-03T11:25:17.438Z,18.48
2023-01-03T11:28:51.933Z,20.83
2023-01-03T11:32:03.586Z,15.60
2023-01-03T11:35:33.955Z,18.10
2023-01-03T11:38:49.480Z,19.35
2023-01-03T11:42:22.675Z,17.30
2023-01-03T11:46:01.308Z,23.58
2023-01-03T11:49:19.728Z,18.83
2023-01-03T11:52:31.244Z,21.17
2023-01-03T11:55:57.299Z,22.10
2023-01-03T11:59:20.534Z,16.45
2023-01-03T12:02:56.836Z,17.52
2023-01-03T12:06:07.696Z,16.27
2023-01-03T12:09:21.717Z,22.10
2023-01-03T12:12:44.573Z,17.95
2023-01-03T12:15:55.698Z,16.20
2023-01-03T12:19:09.994Z,12.43
2023-01-03T12:22:23.950Z,16.02
2023-01-03T12:25:32.216Z,14.20
2023-01-03T12:28:41.243Z,11.65
2023-01-03T12:31:52.580Z,15.88
2023-01-03T12:35:24.108Z,12.30
2023-01-03T12:38:32.119Z,15.88
2023-01-03T12:41:42.639Z,11.75
2023-01-03T12:44:48.013Z,10.25
2023-01-03T12:47:59.438Z,11.77
2023-01-03T12:51:03.265Z,10.55
2023-01-03T12:57:46.005Z,12.77
2023-01-03T13:01:00.117Z,18.20
2023-01-03T13:07:17.762Z,14.20
2023-01-03T13:10:31.119Z,11.45
2023-01-03T13:13:36.118Z,16.73
2023-01-03T13:16:44.545Z,14.43
2023-01-03T13:19:58.702Z,16.50
2023-01-03T13:26:24.924Z,18.80
2023-01-03T13:29:55.666Z,16.63
2023-01-03T13:33:16.891Z,14.77
2023-01-03T13:36:23.338Z,17.80
2023-01-03T13:39:41.617Z,12.15
2023-01-03T13:42:45.744Z,12.77
2023-01-03T13:46:01.877Z,12.15
2023-01-03T13:49:08.221Z,13.27
2023-01-03T13:52:40.147Z,16.85
2023-01-03T13:55:54.265Z,14.35
2023-01-03T13:59:09.150Z,18.08
2023-01-03T14:02:51.433Z,11.60
2023-01-03T14:06:32.775Z,11.65
2023-01-03T14:10:04.083Z,10.85
2023-01-03T14:13:32.927Z,14.27
2023-01-03T14:16:46.974Z,9.40
2023-01-03T14:19:53.406Z,12.30
2023-01-03T14:23:11.590Z,15.38
2023-01-03T14:26:27.543Z,20.25
2023-01-03T14:29:31.358Z,10.30
2023-01-03T14:32:36.683Z,10.70
2023-01-03T14:35:42.315Z,15.63
2023-01-03T14:38:49.078Z,17.27
2023-01-03T14:41:58.030Z,12.85
2023-01-03T14:45:04.433Z,17.48
2023-01-03T14:48:09.346Z,13.88
2023-01-03T14:51:13.778Z,13.77
2023-01-03T14:54:20.855Z,19.67
2023-01-03T14:57:29.304Z,11.07
2023-01-03T15:00:36.741Z,14.93
2023-01-03T15:03:44.482Z,10.75
2023-01-03T15:07:09.572Z,11.82
2023-01-03T15:10:19.751Z,14.52
2023-01-03T15:13:30.501Z,11.27
2023-01-03T15:16:37.499Z,13.10
2023-01-03T15:19:47.777Z,13.68
2023-01-03T15:22:52.697Z,11.70
2023-01-03T15:25:57.193Z,11.20
2023-01-03T15:29:13.500Z,9.32
2023-01-03T15:32:20.987Z,11.50
2023-01-03T15:35:32.158Z,9.57
2023-01-03T15:38:38.317Z,8.40
2023-01-03T15:42:19.650Z,12.43
2023-01-03T15:45:23.853Z,10.15
2023-01-03T15:48:28.319Z,11.23
2023-01-03T15:51:32.108Z,10.63
2023-01-03T15:54:35.867Z,10.23
2023-01-03T15:57:39.762Z,12.88
2023-01-03T16:00:45.714Z,9.50
2023-01-03T16:03:51.055Z,13.57
2023-01-03T16:06:55.377Z,10.77
2023-01-03T16:09:59.127Z,18.65
2023-01-03T16:13:02.920Z,12.45
2023-01-03T16:16:10.469Z,10.35
2023-01-03T16:19:20.325Z,8.80
2023-01-03T16:22:35.113Z,16.38
2023-01-03T16:25:39.835Z,10.77
2023-01-03T16:28:46.330Z,15.38
2023-01-03T16:31:52.043Z,16.95
2023-01-03T16:34:57.852Z,9.30
2023-01-03T16:38:01.678Z,20.05
2023-01-03T16:41:05.606Z,10.77
2023-01-03T16:47:17.691Z,13.48
2023-01-03T16:50:22.472Z,12.75
2023-01-03T16:53:33.485Z,9.02
2023-01-03T16:56:37.253Z,18.73
2023-01-03T16:59:40.998Z,10.82
2023-01-03T17:02:46.971Z,11.23
2023-01-03T17:05:51.936Z,8.70
2023-01-03T17:08:59.972Z,12.43
2023-01-03T17:12:04.719Z,15.95
2023-01-03T17:15:10.794Z,10.98
2023-01-03T17:18:21.622Z,21.25
2023-01-03T17:21:27.337Z,7.15
2023-01-03T17:24:31.272Z,8.45
2023-01-03T17:30:39.554Z,13.77
2023-01-03T17:33:45.400Z,9.07
2023-01-03T17:36:49.655Z,9.27
2023-01-03T17:39:57.333Z,16.92
2023-01-03T17:43:01.311Z,7.00
2023-01-03T17:49:29.822Z,12.48
2023-01-03T17:52:37.418Z,13.43
2023-01-03T17:55:41.664Z,15.75
2023-01-03T17:58:50.660Z,5.90
2023-01-03T18:01:59.930Z,9.18
2023-01-03T18:05:16.384Z,8.98
2023-01-03T18:08:26.474Z,7.13
2023-01-03T18:11:30.232Z,9.13
2023-01-03T18:14:34.053Z,11.63
2023-01-03T18:17:37.867Z,13.85
2023-01-03T18:20:43.651Z,5.90
2023-01-03T18:23:47.790Z,11.18
2023-01-03T18:26:54.707Z,8.40
2023-01-03T18:29:58.432Z,9.63
2023-01-03T18:33:02.166Z,8.60
2023-01-03T18:36:08.936Z,8.20
2023-01-03T18:39:16.037Z,12.40
2023-01-03T18:42:33.079Z,7.72
2023-01-03T18:45:37.699Z,10.32
2023-01-03T18:48:41.465Z,4.25
2023-01-03T18:51:49.700Z,7.15
2023-01-03T18:54:53.934Z,8.85
2023-01-03T18:58:07.690Z,11.80
2023-01-03T19:01:12.144Z,8.38
2023-01-03T19:04:16.016Z,8.32
2023-01-03T19:10:28.111Z,9.23
2023-01-03T19:13:49.266Z,14.98
2023-01-03T19:16:52.996Z,13.40
2023-01-03T19:19:56.692Z,13.90
2023-01-03T19:23:02.370Z,15.23
2023-01-03T19:26:06.401Z,3.72
2023-01-03T19:29:19.283Z,11.93
2023-01-03T19:32:28.122Z,5.65
2023-01-03T19:35:31.856Z,8.20
2023-01-03T19:38:37.461Z,7.63
2023-01-03T19:41:58.772Z,8.77
2023-01-03T19:45:04.183Z,9.60
2023-01-03T19:48:19.544Z,13.18
2023-01-03T19:51:23.243Z,8.75
2023-01-03T19:54:28.949Z,10.20
2023-01-03T19:57:35.775Z,6.07
2023-01-03T20:00:39.537Z,8.68
2023-01-03T20:03:44.667Z,9.60
2023-01-03T20:06:48.698Z,6.47
2023-01-03T20:12:58.627Z,6.30
2023-01-03T20:16:03.211Z,5.53
2023-01-03T20:19:07.054Z,7.82
2023-01-03T20:22:30.126Z,14.25
2023-01-03T20:25:37.770Z,14.60
2023-01-03T20:28:41.519Z,13.30
2023-01-03T20:31:45.382Z,9.75
2023-01-03T20:37:54.942Z,8.52
2023-01-03T20:41:00.801Z,17.60
2023-01-03T20:44:04.562Z,9.10
2023-01-03T20:47:08.485Z,14.65
2023-01-03T20:53:22.669Z,9.18
2023-01-03T20:56:32.153Z,9.15
2023-01-03T20:59:35.847Z,13.07
2023-01-03T21:02:39.737Z,15.80
2023-01-03T21:08:57.176Z,6.80
2023-01-03T21:12:02.834Z,7.90
2023-01-03T21:15:07.863Z,7.15
2023-01-03T21:18:12.302Z,10.85
2023-01-03T21:21:20.612Z,3.40
2023-01-03T21:24:28.735Z,10.50
2023-01-03T21:27:35.229Z,7.32
2023-01-03T21:30:39.788Z,8.57
2023-01-03T21:33:43.496Z,10.10
2023-01-03T21:36:47.648Z,9.50
2023-01-03T21:39:51.353Z,10.75
2023-01-03T21:43:04.461Z,6.80
2023-01-03T21:46:08.953Z,10.88
2023-01-03T21:49:12.726Z,6.47
2023-01-03T21:52:16.431Z,6.75
2023-01-03T21:55:20.383Z,8.70
2023-01-03T22:01:49.838Z,4.95
2023-01-03T22:04:51.682Z,12.05
2023-01-03T22:07:55.561Z,8.82
2023-01-03T22:14:04.752Z,6.93
2023-01-03T22:17:08.493Z,10.95
2023-01-03T22:20:14.601Z,12.40
2023-01-03T22:23:19.342Z,7.78
2023-01-03T22:26:23.040Z,9.85
2023-01-03T22:29:28.705Z,9.00
2023-01-03T22:32:32.455Z,7.35
2023-01-03T22:35:36.215Z,4.68
2023-01-03T22:38:41.155Z,6.50
2023-01-03T22:41:44.869Z,8.68
2023-01-03T22:44:50.518Z,10.55
2023-01-03T22:47:54.288Z,11.85
2023-01-03T22:50:57.982Z,6.07
2023-01-03T22:54:01.729Z,13.18
2023-01-03T22:57:05.614Z,7.53
2023-01-03T23:00:13.276Z,8.50
2023-01-03T23:03:17.044Z,6.80
2023-01-03T23:06:22.489Z,11.70
2023-01-03T23:09:26.250Z,10.43
2023-01-03T23:12:43.167Z,9.60
2023-01-03T23:15:48.815Z,9.73
2023-01-03T23:18:52.695Z,5.30
2023-01-03T23:25:01.419Z,10.35
2023-01-03T23:28:05.422Z,13.85
2023-01-03T23:31:11.241Z,11.35
2023-01-03T23:34:15.182Z,7.93
2023-01-03T23:40:22.468Z,9.90
2023-01-03T23:43:26.855Z,5.50
2023-01-03T23:46:32.551Z,3.58
2023-01-03T23:49:36.395Z,6.18
2023-01-03T23:52:40.096Z,7.40
2023-01-03T23:55:44.050Z,9.93
